Sunflower Gold — JD2460 — position and weather

sailwx.info

Track history (hours):
 
Tides and Currents Weather Stations Pressure Air Temp Water Temp Dewpoint Dewpoint Depression Visibility Wind Speed Wind Dir Waves Ship Positions

Sunflower Gold

Last reported at 2015-Aug-28 22:20 UTC. Time now 2015-Aug-29 06:16 UTC.
Position N 34°36' E 135°15'.

Length 166 m; draft 5.8 m.

Type: Passenger vessel. MMSI: 431000331.

Date/timePositionNaut miles runAvg speedWind from/ knotsBaromVisibWave heightAir tempDewpointWater temp
2015-Aug-28 22:20N 34°36' E 135°15'1 0.0
2015-Aug-27 10:24N 34°37' E 135°15'5 0.7
2015-Aug-27 03:29N 34°42' E 135°17'0 0.0
2015-Aug-27 02:29N 34°42' E 135°17'0 0.0
2015-Aug-27 01:29N 34°42' E 135°17'0 0.0
2015-Aug-27 00:29N 34°42' E 135°17'0 0.0
2015-Aug-26 23:23N 34°42' E 135°17'0 0.0
2015-Aug-26 22:29N 34°42' E 135°17'0 0.0
2015-Aug-26 21:33N 34°42' E 135°17'1010.5
2015-Aug-26 20:34N 34°35' E 135°08'13 0.4
2015-Aug-25 11:22N 34°35' E 134°51'1620.2
2015-Aug-25 10:33N 34°36' E 135°11'7 7.1
2015-Aug-25 09:30N 34°42' E 135°17'0 0.0
2015-Aug-25 08:30N 34°42' E 135°17'0 0.0
2015-Aug-25 07:30N 34°42' E 135°17'0 0.0
2015-Aug-25 06:30N 34°42' E 135°17'0 0.0
2015-Aug-25 05:30N 34°42' E 135°17'0 0.0
2015-Aug-25 04:30N 34°42' E 135°17'0 0.0
2015-Aug-25 03:30N 34°42' E 135°17'0 0.0
2015-Aug-25 02:30N 34°42' E 135°17'0 0.0
2015-Aug-25 01:30N 34°42' E 135°17'0 0.0
2015-Aug-25 00:30N 34°42' E 135°17'0 0.0
2015-Aug-24 23:30N 34°42' E 135°17'0 0.0
2015-Aug-24 22:30N 34°42' E 135°17'0 0.0
2015-Aug-24 21:33N 34°42' E 135°17'1312.9
2015-Aug-24 20:33N 34°35' E 135°03'12 0.4
2015-Aug-23 11:29N 34°34' E 134°49'1819.1
2015-Aug-23 10:33N 34°37' E 135°11'7 7.3
2015-Aug-23 09:33N 34°42' E 135°17'0 0.0
2015-Aug-23 08:33N 34°42' E 135°17'0 0.0
2015-Aug-23 07:33N 34°42' E 135°17'0 0.0
2015-Aug-23 06:30N 34°42' E 135°17'5 5.6
2015-Aug-23 05:33N 34°37' E 135°17'9 9.1
2015-Aug-23 04:33N 34°35' E 135°06'4 4.4
2015-Aug-23 03:34N 34°37' E 135°10'7 7.2
2015-Aug-23 02:34N 34°42' E 135°17'0 0.0
2015-Aug-23 01:30N 34°42' E 135°17'0 0.0
2015-Aug-23 00:30N 34°42' E 135°17'0 0.0
2015-Aug-22 23:30N 34°42' E 135°17'2 2.3
2015-Aug-22 22:33N 34°40' E 135°19'1413.8
2015-Aug-22 21:33N 34°36' E 135°03'9 0.3
2015-Aug-21 12:16N 34°35' E 134°52'1318.7
2015-Aug-21 11:33N 34°37' E 135°08'9 8.5
2015-Aug-21 10:28N 34°42' E 135°17'0 0.0
2015-Aug-21 09:28N 34°42' E 135°17'0 0.0
2015-Aug-21 08:28N 34°42' E 135°17'0 0.0
2015-Aug-21 07:22N 34°42' E 135°17'0 0.0
2015-Aug-21 06:04N 34°42' E 135°17'0 0.0
2015-Aug-21 05:28N 34°42' E 135°17'0 0.0
2015-Aug-21 04:16N 34°42' E 135°17'0 0.0
2015-Aug-21 03:28N 34°42' E 135°17'0 0.0
2015-Aug-21 02:10N 34°42' E 135°17'0 0.0
2015-Aug-21 01:16N 34°42' E 135°17'0 0.0
2015-Aug-21 00:22N 34°42' E 135°17'0 0.0
2015-Aug-20 23:28N 34°42' E 135°17'0 0.0
2015-Aug-20 22:22N 34°42' E 135°17'0 0.1
2015-Aug-20 21:33N 34°42' E 135°17'1212.3
2015-Aug-20 20:33N 34°35' E 135°05'9 0.3
2015-Aug-19 11:21N 34°36' E 134°53'1518.9
2015-Aug-19 10:33N 34°36' E 135°12'7 5.6
2015-Aug-19 09:20N 34°42' E 135°17'0 0.0
2015-Aug-19 08:32N 34°42' E 135°17'0 0.0
2015-Aug-19 07:32N 34°42' E 135°17'0 0.0
2015-Aug-19 06:26N 34°42' E 135°17'0 0.0
2015-Aug-19 05:32N 34°42' E 135°17'0 0.0
2015-Aug-19 04:32N 34°42' E 135°17'0 0.0
2015-Aug-19 03:32N 34°42' E 135°17'  
Track history (hours):
 
Tides and Currents Weather Stations Pressure Air Temp Water Temp Dewpoint Dewpoint Depression Visibility Wind Speed Wind Dir Waves Ship Positions

Sunflower Gold

Last reported at 2015-Aug-28 22:20 UTC. Time now 2015-Aug-29 06:16 UTC.
Position N 34°36' E 135°15'.

Length 166 m; draft 5.8 m.

Type: Passenger vessel. MMSI: 431000331.

Date/timePositionNaut miles runAvg speedWind from/ knotsBaromVisibWave heightAir tempDewpointWater temp
2015-Aug-28 22:20N 34°36' E 135°15'1 0.0
2015-Aug-27 10:24N 34°37' E 135°15'5 0.7
2015-Aug-27 03:29N 34°42' E 135°17'0 0.0
2015-Aug-27 02:29N 34°42' E 135°17'0 0.0
2015-Aug-27 01:29N 34°42' E 135°17'0 0.0
2015-Aug-27 00:29N 34°42' E 135°17'0 0.0
2015-Aug-26 23:23N 34°42' E 135°17'0 0.0
2015-Aug-26 22:29N 34°42' E 135°17'0 0.0
2015-Aug-26 21:33N 34°42' E 135°17'1010.5
2015-Aug-26 20:34N 34°35' E 135°08'13 0.4
2015-Aug-25 11:22N 34°35' E 134°51'1620.2
2015-Aug-25 10:33N 34°36' E 135°11'7 7.1
2015-Aug-25 09:30N 34°42' E 135°17'0 0.0
2015-Aug-25 08:30N 34°42' E 135°17'0 0.0
2015-Aug-25 07:30N 34°42' E 135°17'0 0.0
2015-Aug-25 06:30N 34°42' E 135°17'0 0.0
2015-Aug-25 05:30N 34°42' E 135°17'0 0.0
2015-Aug-25 04:30N 34°42' E 135°17'0 0.0
2015-Aug-25 03:30N 34°42' E 135°17'0 0.0
2015-Aug-25 02:30N 34°42' E 135°17'0 0.0
2015-Aug-25 01:30N 34°42' E 135°17'0 0.0
2015-Aug-25 00:30N 34°42' E 135°17'0 0.0
2015-Aug-24 23:30N 34°42' E 135°17'0 0.0
2015-Aug-24 22:30N 34°42' E 135°17'0 0.0
2015-Aug-24 21:33N 34°42' E 135°17'1312.9
2015-Aug-24 20:33N 34°35' E 135°03'12 0.4
2015-Aug-23 11:29N 34°34' E 134°49'1819.1
2015-Aug-23 10:33N 34°37' E 135°11'7 7.3
2015-Aug-23 09:33N 34°42' E 135°17'0 0.0
2015-Aug-23 08:33N 34°42' E 135°17'0 0.0
2015-Aug-23 07:33N 34°42' E 135°17'0 0.0
2015-Aug-23 06:30N 34°42' E 135°17'5 5.6
2015-Aug-23 05:33N 34°37' E 135°17'9 9.1
2015-Aug-23 04:33N 34°35' E 135°06'4 4.4
2015-Aug-23 03:34N 34°37' E 135°10'7 7.2
2015-Aug-23 02:34N 34°42' E 135°17'0 0.0
2015-Aug-23 01:30N 34°42' E 135°17'0 0.0
2015-Aug-23 00:30N 34°42' E 135°17'0 0.0
2015-Aug-22 23:30N 34°42' E 135°17'2 2.3
2015-Aug-22 22:33N 34°40' E 135°19'1413.8
2015-Aug-22 21:33N 34°36' E 135°03'9 0.3
2015-Aug-21 12:16N 34°35' E 134°52'1318.7
2015-Aug-21 11:33N 34°37' E 135°08'9 8.5
2015-Aug-21 10:28N 34°42' E 135°17'0 0.0
2015-Aug-21 09:28N 34°42' E 135°17'0 0.0
2015-Aug-21 08:28N 34°42' E 135°17'0 0.0
2015-Aug-21 07:22N 34°42' E 135°17'0 0.0
2015-Aug-21 06:04N 34°42' E 135°17'0 0.0
2015-Aug-21 05:28N 34°42' E 135°17'0 0.0
2015-Aug-21 04:16N 34°42' E 135°17'0 0.0
2015-Aug-21 03:28N 34°42' E 135°17'0 0.0
2015-Aug-21 02:10N 34°42' E 135°17'0 0.0
2015-Aug-21 01:16N 34°42' E 135°17'0 0.0
2015-Aug-21 00:22N 34°42' E 135°17'0 0.0
2015-Aug-20 23:28N 34°42' E 135°17'0 0.0
2015-Aug-20 22:22N 34°42' E 135°17'0 0.1
2015-Aug-20 21:33N 34°42' E 135°17'1212.3
2015-Aug-20 20:33N 34°35' E 135°05'9 0.3
2015-Aug-19 11:21N 34°36' E 134°53'1518.9
2015-Aug-19 10:33N 34°36' E 135°12'7 5.6
2015-Aug-19 09:20N 34°42' E 135°17'0 0.0
2015-Aug-19 08:32N 34°42' E 135°17'0 0.0
2015-Aug-19 07:32N 34°42' E 135°17'0 0.0
2015-Aug-19 06:26N 34°42' E 135°17'0 0.0
2015-Aug-19 05:32N 34°42' E 135°17'0 0.0
2015-Aug-19 04:32N 34°42' E 135°17'0 0.0
2015-Aug-19 03:32N 34°42' E 135°17'  

Dump ship's entire track history